Date,TemperatureHighF,TemperatureAvgF,TemperatureLowF,DewpointHighF,DewpointAvgF,DewpointLowF,HumidityHigh,HumidityAvg,HumidityLow,PressureMaxIn,PressureMinIn,WindSpeedMaxMPH,WindSpeedAvgMPH,GustSpeedMaxMPH,PrecipitationSumIn
2013-1-1,21,17,10,16,9,1,85,70,57,30.29,30.16,9,5,0,0.00
2013-1-2,30,19,5,19,10,0,84,67,50,30.24,30.12,12,8,0,0.00
2013-1-3,36,28,19,25,20,9,92,73,58,30.39,30.18,13,8,21,0.00
2013-1-4,37,21,14,21,13,7,85,73,51,30.38,30.27,12,7,17,0.00
2013-1-5,39,34,27,34,27,18,93,75,68,30.27,30.06,15,10,18,0.00
2013-1-6,37,30,23,30,20,18,79,66,51,30.35,30.06,18,9,28,0.00
2013-1-7,43,29,21,25,20,16,85,67,44,30.34,30.10,17,9,24,0.00
2013-1-8,50,40,32,27,24,23,69,52,34,30.14,30.02,14,9,16,0.00
2013-1-9,52,41,36,32,30,27,80,66,40,30.39,30.12,10,8,0,0.00
2013-1-10,46,44,39,45,41,25,93,87,48,30.23,29.78,13,7,20,0.20
2013-1-11,59,53,46,50,46,43,93,79,54,29.80,29.68,21,12,28,0.01
2013-1-12,57,41,27,43,29,21,86,64,43,30.04,29.72,18,11,25,0.00
2013-1-13,27,21,16,23,11,7,86,65,49,30.34,29.96,15,10,18,0.00
2013-1-14,28,18,10,9,6,1,85,60,30,30.50,30.34,6,3,0,0.00
2013-1-15,32,22,12,12,10,7,85,60,34,30.42,30.14,8,2,0,0.00
2013-1-16,43,30,16,25,16,9,78,57,33,30.16,29.97,16,9,24,0.04
2013-1-17,37,34,27,30,20,12,92,60,34,30.46,30.10,14,8,21,0.00
2013-1-18,54,39,25,27,23,18,79,54,30,30.45,30.05,21,14,30,0.00
2013-1-19,43,43,43,25,25,25,48,48,48,30.05,30.05,10,10,0,0.00
2013-1-20,23,21,19,10,9,7,67,58,49,30.34,30.32,13,9,17,0.00
2013-1-21,19,18,18,10,10,10,72,70,67,30.33,30.32,12,10,0,0.00
2013-1-22,18,14,9,7,0,-6,72,54,47,30.47,30.34,9,2,0,0.00
2013-1-23,41,25,10,18,12,3,78,58,35,30.41,30.14,18,8,24,0.00
2013-1-24,25,19,12,5,1,-4,61,45,32,30.60,30.24,15,9,21,0.00
2013-1-25,45,32,25,21,13,5,63,45,28,30.24,30.09,15,7,20,0.00
2013-1-26,39,29,16,21,9,5,68,45,23,30.39,30.23,9,5,16,0.00
2013-1-27,52,38,30,48,32,14,93,78,46,30.26,29.85,15,9,21,0.11
2013-1-28,72,61,52,57,54,48,93,78,60,29.92,29.77,16,9,22,0.00
2013-1-29,64,58,39,59,54,37,93,87,67,29.77,29.44,21,8,29,1.52
2013-1-30,39,32,27,37,26,12,93,77,54,29.88,29.35,29,15,37,0.15
2013-1-31,27,16,9,12,1,-6,62,51,44,30.39,29.88,24,17,32,0.00
2013-2-1,28,16,5,18,1,-6,79,52,35,30.45,30.16,16,9,22,0.00
2013-2-2,36,31,27,25,17,10,92,55,43,30.16,30.03,17,9,25,0.00
2013-2-3,34,30,25,27,17,10,92,60,40,30.21,29.94,21,10,31,0.00
2013-2-4,45,34,28,27,20,12,74,58,45,30.00,29.79,18,8,21,0.00
2013-2-5,50,36,27,30,26,19,86,69,43,30.12,29.88,17,8,23,0.00
2013-2-6,55,40,27,30,27,21,92,63,26,30.20,30.01,14,6,17,0.00
2013-2-7,45,41,34,41,36,28,93,84,52,30.10,29.87,18,8,28,0.35
2013-2-8,34,33,32,32,28,27,93,82,74,30.38,30.10,16,7,23,0.00
2013-2-9,43,35,30,34,27,25,86,71,52,30.34,29.97,14,8,18,0.04
2013-2-10,63,47,37,50,37,25,93,72,26,29.98,29.44,30,16,46,0.23
2013-2-11,46,39,30,27,23,19,80,52,39,30.15,29.72,37,18,46,0.00
2013-2-12,43,34,27,25,24,19,86,67,38,30.16,29.94,6,2,0,0.00
2013-2-13,48,39,28,30,27,25,86,62,45,29.94,29.79,17,8,21,0.00
2013-2-14,50,42,36,30,27,23,74,55,39,30.08,29.77,22,11,27,0.00
2013-2-15,39,31,23,25,13,5,74,48,25,30.30,30.08,15,10,22,0.00
2013-2-16,34,24,18,16,11,7,73,57,36,30.27,30.14,12,6,0,0.00
2013-2-17,48,35,25,27,17,12,73,50,23,30.14,29.82,14,8,21,0.00
2013-2-18,57,44,28,46,32,16,93,63,47,29.90,29.47,27,16,37,0.20
2013-2-19,28,24,19,16,10,5,63,53,36,30.31,29.90,25,15,33,0.00
2013-2-20,23,18,10,12,6,1,73,58,48,30.43,30.29,13,5,0,0.00
2013-2-21,21,19,19,12,12,10,73,71,67,30.32,30.30,5,4,0,0.00
2013-2-25,46,41,39,30,26,21,69,54,36,30.04,29.80,17,9,23,0.00
2013-2-26,36,34,32,34,32,30,93,90,86,29.67,29.45,14,9,20,0.11
2013-2-27,34,33,32,32,30,27,100,88,80,29.90,29.67,16,11,21,0.08
2013-2-28,34,32,30,30,27,25,92,82,69,30.12,29.89,16,11,20,0.00
2013-3-1,34,29,27,27,23,16,92,77,63,30.25,30.09,12,8,18,0.01
2013-3-2,34,27,19,23,16,12,86,64,40,30.29,30.21,15,7,20,0.00
2013-3-3,36,27,16,21,16,10,85,64,43,30.21,30.00,8,4,0,0.00
2013-3-4,48,38,34,30,26,21,74,62,36,30.00,29.78,15,10,22,0.00
2013-3-5,36,33,30,32,26,18,100,76,51,30.18,29.86,24,15,35,0.01
2013-3-6,36,30,21,21,19,16,79,64,51,30.38,30.18,24,10,30,0.00
2013-3-7,43,30,18,28,20,14,92,68,41,30.41,30.30,10,4,0,0.00
2013-3-8,52,41,30,30,28,25,86,61,34,30.37,30.15,13,8,18,0.00
2013-3-9,59,48,39,43,35,28,93,64,35,30.15,29.73,16,9,22,0.76
2013-3-10,54,50,39,50,47,37,93,90,76,29.76,29.58,18,7,23,0.61
2013-3-11,39,34,32,37,29,23,93,84,64,29.96,29.70,21,14,29,0.00
2013-3-12,43,32,27,27,23,19,86,70,52,30.22,29.95,23,12,31,0.00
2013-3-13,39,32,25,21,16,10,68,51,30,30.43,30.22,17,10,27,0.00
2013-3-14,61,42,28,34,24,16,68,49,31,30.38,30.06,17,-15,23,0.00
2013-3-15,73,53,36,46,35,27,75,53,25,30.09,29.65,14,5,17,0.00
2013-3-16,52,42,37,43,33,28,93,72,60,30.09,29.64,15,8,22,0.00
2013-3-17,39,36,34,32,27,23,93,72,51,30.11,29.82,14,8,21,0.10
2013-3-18,50,39,32,36,29,16,93,70,29,30.02,29.71,28,12,38,0.01
2013-3-19,45,35,28,19,12,5,55,39,22,30.21,30.01,18,10,23,0.00
2013-3-20,36,29,21,25,10,1,69,47,26,30.29,30.13,22,12,29,0.00
2013-3-21,39,27,16,14,9,3,67,47,23,30.13,29.98,8,3,0,0.00
2013-3-22,41,33,25,23,17,14,73,52,35,30.05,29.99,9,3,0,0.00
2013-3-23,52,43,36,32,21,16,80,45,25,30.06,29.89,12,5,20,0.00
2013-3-24,37,32,32,32,30,28,92,91,80,29.94,29.71,20,13,24,0.00
2013-3-25,36,32,30,30,26,19,92,77,51,30.20,29.88,17,11,24,0.00
2013-3-26,41,34,30,23,21,19,74,59,44,30.34,30.20,14,8,0,0.05
2013-3-27,45,36,25,25,20,18,79,55,35,30.39,30.29,8,3,0,0.00
2013-3-28,54,44,36,30,26,21,65,50,36,30.34,30.24,12,6,16,0.00
2013-3-29,63,49,36,39,33,30,80,57,31,30.27,30.19,9,5,0,0.00
2013-3-30,55,49,45,46,40,-100,87,74,50,30.20,29.92,20,8,29,0.00
2013-3-31,66,54,45,48,39,23,93,61,27,30.00,29.86,18,9,24,0.00
2013-4-1,46,39,32,27,17,9,63,42,22,30.27,30.00,16,10,25,0.00
2013-4-2,50,38,25,21,14,5,73,40,16,30.36,30.27,10,4,0,0.00
2013-4-3,52,40,30,21,16,9,59,39,18,30.42,30.26,10,4,18,0.00
2013-4-4,61,49,34,25,20,14,64,34,18,30.26,30.04,9,2,0,0.00
2013-4-5,66,55,41,32,26,18,70,36,17,30.18,29.98,12,5,17,0.00
2013-4-6,73,61,55,39,32,28,44,33,21,29.98,29.68,29,15,38,0.00
2013-4-7,79,65,48,50,37,32,70,38,18,29.93,29.75,12,4,17,0.00
2013-4-8,75,66,55,57,55,48,87,67,50,29.83,29.65,20,7,41,0.57
2013-4-9,79,71,66,59,56,54,68,59,47,29.84,29.76,22,11,31,0.00
2013-4-10,72,58,48,59,52,45,93,82,60,29.88,29.64,23,10,41,0.55
2013-4-11,48,43,39,46,37,28,93,79,64,29.72,29.65,21,12,27,0.00
2013-4-12,45,40,37,32,30,28,80,67,56,29.98,29.69,20,12,25,0.00
2013-4-13,57,48,36,36,31,25,80,52,37,30.06,29.87,15,-18,22,0.00
2013-4-14,81,66,52,55,39,32,93,41,18,29.87,29.53,24,14,41,0.36
2013-4-15,59,55,43,57,46,34,93,72,54,30.00,29.71,12,5,17,0.26
2013-4-16,50,46,43,39,37,34,86,71,53,30.19,29.97,12,6,17,0.43
2013-4-17,59,51,46,55,45,36,93,82,57,30.16,29.73,24,-6,37,0.18
2013-4-18,61,51,39,59,46,28,93,82,64,29.78,29.53,25,14,38,1.19
2013-4-19,48,42,37,28,25,21,69,52,34,30.06,29.75,28,17,35,0.03
2013-4-20,50,40,30,28,24,18,80,54,29,30.32,30.06,8,4,0,0.00
2013-4-21,66,54,43,36,32,27,60,44,27,30.37,30.21,15,9,20,0.00
2013-4-22,72,61,50,39,33,28,53,35,19,30.25,29.96,14,8,18,0.00
2013-4-23,61,46,39,48,39,36,93,77,41,30.06,29.92,16,9,24,0.19
2013-4-24,54,43,36,36,29,23,93,61,30,30.21,30.04,16,10,23,0.03
2013-4-25,63,52,39,34,28,23,75,42,21,30.33,30.18,17,8,24,0.00
2013-4-26,61,56,52,46,40,27,76,54,32,30.33,30.23,23,10,29,0.00
2013-4-27,54,51,46,50,47,41,93,86,71,30.28,29.98,8,3,0,0.15
2013-4-28,64,56,52,52,50,48,93,80,55,29.98,29.88,9,6,0,0.01
2013-4-29,84,68,50,59,52,46,93,61,30,29.90,29.70,23,10,28,0.00
2013-4-30,86,75,64,57,51,43,77,45,22,29.91,29.73,21,11,27,0.00
2013-5-1,84,74,63,52,47,41,63,40,23,30.11,29.91,13,-7,17,0.00
2013-5-2,61,48,39,46,39,36,93,71,57,30.24,30.10,18,13,24,0.24
2013-5-3,43,39,37,39,37,34,93,91,86,30.17,29.79,17,12,24,1.44
2013-5-4,48,44,39,45,41,37,93,88,81,30.04,29.79,8,2,0,0.02
2013-5-5,70,56,45,57,50,43,93,81,52,30.04,29.92,16,5,23,0.00
2013-5-6,77,64,52,55,51,45,93,65,33,30.05,29.97,14,6,20,0.00
2013-5-7,81,68,54,50,42,32,76,43,17,30.06,29.99,9,4,0,0.00
2013-5-8,81,68,57,57,49,37,72,52,27,30.05,29.97,13,5,23,0.00
2013-5-9,73,64,61,63,59,52,93,82,59,29.97,29.84,13,-1,38,0.89
2013-5-10,61,57,50,59,51,-100,93,83,72,30.03,29.85,15,-7,20,0.00
2013-5-11,64,55,45,52,36,-100,93,57,23,30.19,30.00,24,10,32,0.00
2013-5-12,63,51,39,28,25,19,60,38,19,30.26,30.14,15,6,20,0.00
2013-5-13,73,59,39,41,34,25,75,41,20,30.21,29.98,13,6,17,0.00
2013-5-14,90,75,57,55,49,39,67,42,22,29.98,29.77,18,11,25,0.00
2013-5-15,88,78,68,66,54,46,82,44,33,29.91,29.81,23,9,51,0.50
2013-5-16,86,65,64,66,36,-100,93,68,40,29.94,29.85,17,-3,23,0.03
2013-5-17,79,69,59,63,53,-100,87,66,50,29.98,29.92,8,4,0,0.00
2013-5-18,84,73,63,68,63,59,93,71,45,30.01,29.87,10,6,16,0.00
2013-5-19,91,79,70,70,64,57,82,61,37,29.89,29.65,16,10,24,0.00
2013-5-20,82,71,63,66,60,54,93,69,37,29.86,29.67,24,11,32,0.21
2013-5-23,64,61,55,54,52,48,81,71,63,30.25,30.07,12,8,20,0.00
2013-5-24,70,59,46,50,41,36,93,54,28,30.42,30.25,12,5,16,0.00
2013-5-25,68,59,54,54,48,39,93,66,47,30.35,30.16,15,7,22,0.70
2013-5-26,77,63,54,64,52,46,88,69,53,30.18,29.98,12,7,18,0.00
2013-5-27,75,69,64,64,63,59,93,82,57,29.98,29.71,15,5,20,0.28
2013-5-28,79,74,63,70,66,59,94,76,60,29.97,29.74,23,10,36,0.14
2013-5-29,88,73,63,64,61,57,93,68,40,29.95,29.78,20,10,31,0.11
2013-5-30,84,73,64,66,62,57,88,69,45,29.87,29.75,27,14,41,1.17
2013-5-31,66,39,63,63,-2,-100,93,55,82,29.90,29.69,14,7,21,0.44
2013-6-1,-200,0,200,-100,-100,-100,0,0,100,29.80,29.70,18,10,25,0.00
2013-6-2,-200,0,200,-100,-100,-100,0,0,100,30.06,29.92,13,6,16,0.00
2013-6-3,-200,0,200,-100,-100,-100,0,0,100,30.13,30.00,9,3,0,0.00
2013-6-4,-200,0,200,-100,-100,-100,0,0,100,30.11,29.99,10,5,16,0.00
2013-6-5,77,28,68,64,-37,-100,88,27,53,30.04,29.90,7,3,0,0.05
2013-6-6,75,68,61,64,55,46,93,65,35,29.93,29.87,14,0,20,0.00
2013-6-7,77,65,55,57,52,48,93,65,38,29.97,29.91,13,5,16,0.00
2013-6-8,81,69,54,59,52,46,100,58,31,29.98,29.89,9,4,0,0.00
2013-6-9,75,68,63,64,58,50,93,69,52,29.92,29.78,20,0,27,0.08
2013-6-10,79,69,63,63,61,57,93,74,47,29.91,29.78,9,4,0,0.00
2013-6-11,90,77,63,70,64,59,93,67,40,29.94,29.83,15,7,23,0.00
2013-6-12,95,82,68,70,67,64,94,62,36,29.92,29.71,22,10,33,0.00
2013-6-13,86,75,66,61,56,48,77,55,27,30.03,29.81,23,8,35,0.00
2013-6-14,81,71,61,66,60,55,93,69,41,30.15,29.91,16,4,23,0.02
2013-6-15,91,76,68,72,65,57,93,70,43,30.09,29.91,22,8,35,0.20
2013-6-16,82,75,68,72,67,64,94,79,54,30.03,29.92,9,4,0,0.08
2013-6-17,84,76,68,73,67,63,94,74,48,30.00,29.92,9,2,0,0.00
2013-6-18,84,73,66,68,62,54,94,72,37,30.01,29.93,12,6,16,0.00
2013-6-19,88,74,64,64,57,52,77,57,30,30.10,30.01,7,3,0,0.00
2013-6-20,91,80,66,64,60,57,72,52,33,30.11,30.03,13,6,18,0.00
2013-6-21,93,86,75,70,67,64,69,55,43,30.07,29.95,15,9,22,0.00
2013-6-22,95,82,73,70,66,61,78,59,38,30.04,29.96,14,9,22,0.00
2013-6-23,91,75,70,68,65,61,88,70,43,30.04,29.85,17,8,23,0.08
2013-6-24,91,81,70,70,68,64,88,65,43,30.06,29.87,15,9,21,0.00
2013-6-25,93,83,75,72,68,66,78,61,43,29.94,29.81,16,9,23,0.00
2013-6-26,88,80,72,75,70,63,88,70,55,29.84,29.76,20,7,27,0.09
2013-6-27,90,80,72,68,64,61,78,60,38,29.94,29.84,15,6,22,0.00
2013-6-28,84,76,70,66,61,46,82,61,26,29.89,29.75,15,7,23,0.00
2013-6-29,81,71,64,64,58,54,88,64,41,29.82,29.70,28,9,36,0.07
2013-6-30,77,69,64,63,60,55,93,72,47,30.00,29.82,14,6,21,0.06
2013-7-1,81,71,61,63,52,46,88,54,31,30.06,30.00,10,6,21,0.00
2013-7-2,79,70,61,61,51,46,72,51,31,30.09,30.03,12,4,20,0.00
2013-7-3,84,71,61,59,55,52,82,58,32,30.08,30.01,9,3,0,0.00
2013-7-4,88,73,61,63,57,52,93,62,29,30.10,30.01,7,4,0,0.00
2013-7-5,88,75,66,61,58,55,72,57,33,30.08,30.00,8,5,0,0.00
2013-7-6,91,76,68,66,62,57,88,64,31,30.05,29.96,12,6,0,0.00
2013-7-7,93,78,70,64,62,59,73,58,36,30.03,29.98,13,7,16,0.00
2013-7-8,93,81,75,70,65,63,83,60,41,30.08,30.00,12,6,0,0.00
2013-7-9,95,84,77,70,68,66,78,59,41,30.05,29.90,12,6,17,0.00
2013-7-10,91,79,72,72,62,-100,78,58,33,30.05,29.87,15,6,22,0.00
2013-7-11,86,71,61,59,56,52,88,61,33,30.11,30.05,7,2,0,0.00
2013-7-12,84,68,63,59,56,46,88,67,26,30.15,30.07,8,2,0,0.00
2013-7-13,88,73,59,59,55,52,87,57,31,30.13,30.05,8,3,0,0.00
2013-7-14,90,78,66,64,60,57,88,57,33,30.17,30.08,9,5,0,0.00
2013-7-15,95,80,72,75,68,63,88,69,36,30.25,30.16,13,3,17,0.18
2013-7-16,95,84,73,72,69,64,88,64,36,30.31,30.24,9,4,0,0.00
2013-7-17,97,83,75,73,69,64,88,65,34,30.35,30.22,6,3,0,0.00
2013-7-18,93,82,77,72,69,64,83,65,38,30.24,30.02,7,4,0,0.00
2013-7-19,93,82,75,70,67,63,78,61,38,30.03,29.87,9,6,0,0.00
2013-7-20,90,81,70,68,63,-100,82,56,37,29.94,29.87,9,4,0,0.00
2013-7-21,82,74,66,73,68,64,94,84,58,29.94,29.83,10,3,18,0.25
2013-7-22,91,77,64,73,68,63,100,76,43,29.89,29.78,10,3,0,0.00
2013-7-23,88,77,66,73,62,57,93,61,42,29.96,29.79,10,5,17,0.00
2013-7-24,82,70,63,59,55,50,82,60,34,30.06,29.94,10,4,17,0.00
2013-7-25,84,69,57,61,55,52,93,65,32,30.14,30.05,9,2,0,0.00
2013-7-26,82,74,66,68,61,54,83,65,51,30.08,29.94,14,6,20,0.02
2013-7-27,77,62,57,55,53,41,87,72,27,30.06,29.99,13,6,20,0.00
2013-7-28,75,57,52,50,48,45,87,73,33,30.08,30.02,9,3,0,0.00
2013-7-29,82,65,54,63,55,48,93,70,32,30.16,30.08,10,2,0,0.00
2013-7-30,82,74,66,72,66,61,94,79,58,30.13,30.01,9,4,0,0.48
2013-7-31,79,72,66,72,66,63,94,82,57,30.09,30.03,9,4,0,0.01
2013-8-1,88,74,64,66,62,52,93,69,29,30.10,29.98,7,3,0,0.00
2013-8-2,86,74,66,70,65,61,94,73,51,30.00,29.93,13,5,18,0.49
2013-8-3,84,72,64,68,62,54,94,74,34,30.16,29.97,8,2,0,0.00
2013-8-4,82,70,59,63,57,54,93,65,37,30.21,30.09,8,2,0,0.00
2013-8-5,81,74,68,68,63,57,88,67,57,30.11,29.87,12,6,16,0.00
2013-8-6,88,78,70,73,69,66,94,76,48,29.92,29.84,9,4,0,0.00
2013-8-7,88,77,72,73,71,66,94,82,58,29.97,29.80,10,4,0,0.00
2013-8-8,82,73,64,68,65,63,93,77,54,30.02,29.95,7,3,0,0.00
2013-8-9,82,75,68,68,64,59,93,71,47,30.09,30.00,6,1,0,0.00
2013-8-10,84,73,64,66,57,48,88,60,28,30.19,30.09,10,3,17,0.00
2013-8-11,90,71,61,61,57,54,87,63,31,30.17,30.05,8,2,0,0.00
2013-8-12,82,74,66,72,63,57,88,69,57,30.08,29.96,15,3,0,0.63
2013-8-13,81,69,61,63,54,-100,93,65,36,30.17,30.01,9,4,0,0.00
2013-8-14,79,62,52,57,46,-100,93,64,25,30.24,30.15,6,1,0,0.00
2013-8-15,77,60,57,59,36,-100,88,58,33,30.20,30.10,8,1,0,0.00
2013-8-16,81,66,59,57,48,-100,87,60,32,30.20,30.13,10,3,0,0.00
2013-8-17,82,68,57,61,51,-100,93,62,30,30.22,30.14,8,2,0,0.00
2013-8-18,86,70,57,63,56,52,93,64,33,30.21,30.11,6,1,0,0.00
2013-8-19,90,71,64,66,46,-100,88,57,31,30.15,30.04,9,3,0,0.00
2013-8-20,90,77,70,64,58,-100,82,59,33,30.12,30.03,8,5,0,0.00
2013-8-21,93,79,66,66,62,57,93,60,29,30.12,30.03,12,5,0,0.00
2013-8-22,90,80,70,73,67,63,88,68,40,30.12,30.04,9,4,0,0.00
2013-8-23,91,79,72,73,66,63,88,66,38,30.13,30.07,8,5,0,0.00
2013-8-24,93,79,70,68,62,-100,88,61,36,30.22,30.11,9,5,0,0.00
2013-8-25,91,78,70,64,63,57,78,60,33,30.27,30.16,10,6,0,0.00
2013-8-26,97,80,70,70,64,59,88,61,30,30.20,30.05,9,6,0,0.00
2013-8-27,97,80,72,70,66,55,88,67,25,30.09,30.01,15,8,20,0.00
2013-8-28,99,91,79,63,60,57,54,36,25,30.04,29.99,14,8,17,0.00
2013-8-29,99,82,75,72,64,57,69,55,26,30.07,29.97,8,5,0,0.00
2013-8-30,100,85,75,72,67,59,88,60,25,29.98,29.83,14,6,20,0.00
2013-8-31,99,85,77,70,64,-100,78,53,34,29.84,29.76,13,5,17,0.00
2013-9-1,90,78,70,75,67,55,94,72,33,29.90,29.80,9,3,0,0.00
2013-9-2,84,72,63,59,54,48,88,56,28,30.02,29.90,8,5,16,0.00
2013-9-3,82,66,54,55,51,45,93,61,26,30.12,30.02,6,2,0,0.00
2013-9-4,88,67,55,57,51,45,87,59,22,30.18,30.07,6,1,0,0.00
2013-9-5,91,71,63,57,55,52,77,59,26,30.21,30.14,7,3,0,0.00
2013-9-6,86,73,66,61,57,55,77,59,35,30.19,30.03,7,4,0,0.00
2013-9-7,93,74,63,61,54,-100,82,54,28,30.04,29.91,10,5,0,0.00
2013-9-8,95,81,72,72,66,59,94,61,34,29.98,29.88,15,8,23,0.01
2013-9-9,93,78,73,70,66,57,88,69,34,29.97,29.89,13,7,0,0.00
2013-9-10,91,78,72,63,61,55,73,56,35,30.08,29.97,8,6,0,0.00
2013-9-11,86,78,73,64,60,55,61,53,35,30.13,30.04,7,5,0,0.00
2013-9-12,86,73,64,68,57,41,94,62,31,30.13,30.07,13,5,18,0.11
2013-9-13,75,61,54,52,47,32,87,61,23,30.20,30.11,10,3,16,0.00
2013-9-14,77,61,50,46,39,-100,81,50,22,30.18,30.02,8,4,0,0.00
2013-9-15,73,65,59,64,52,39,88,65,47,30.18,29.97,15,8,17,0.07
2013-9-16,72,63,55,57,54,50,93,73,46,30.33,30.18,8,4,16,0.00
2013-9-17,68,62,57,63,57,54,88,82,67,30.27,30.08,9,4,0,0.00
2013-9-18,68,67,64,64,63,61,88,86,77,30.08,30.02,9,6,0,0.00
2013-9-19,91,80,70,66,64,59,88,60,35,29.95,29.82,18,10,31,0.16
2013-9-20,73,68,57,66,57,45,93,71,37,29.97,29.89,13,6,17,0.07
2013-9-21,73,59,50,50,43,-100,93,62,28,30.02,29.93,13,4,17,0.00
2013-9-22,77,61,46,50,45,41,93,61,27,30.04,29.94,8,2,0,0.00
2013-9-23,77,65,52,52,48,45,93,57,31,30.03,29.92,13,5,16,0.00
2013-9-24,82,69,55,63,52,45,88,58,37,29.95,29.80,12,6,20,0.00
2013-9-25,82,69,59,63,58,55,93,70,41,29.92,29.82,8,3,0,0.00
2013-9-26,86,71,61,59,56,54,88,63,33,30.01,29.89,12,5,0,0.00
2013-9-27,84,72,64,59,55,50,77,54,39,30.09,29.99,9,6,16,0.00
2013-9-28,79,68,61,70,58,-100,94,72,49,30.07,29.93,15,8,23,0.19
2013-9-29,77,61,50,57,47,37,93,65,25,30.11,30.00,7,2,0,0.00
2013-9-30,81,66,50,59,50,39,88,58,36,30.00,29.88,13,6,18,0.00
2013-10-1,72,70,68,61,60,59,77,72,64,30.00,29.96,6,0,0,0.00
2013-10-2,88,73,64,70,63,57,94,73,37,30.06,29.94,9,5,0,0.00
2013-10-3,86,74,70,68,65,61,88,74,42,29.95,29.81,29,8,36,0.00
2013-10-4,91,78,70,70,65,57,94,67,33,29.95,29.87,16,9,21,0.00
2013-10-5,77,65,50,68,59,46,93,82,68,29.94,29.86,13,8,18,0.13
2013-10-6,54,49,43,46,42,36,93,75,53,29.90,29.82,17,9,24,0.03
2013-10-7,73,59,52,46,42,36,81,56,25,30.13,29.90,12,7,0,0.00
2013-10-8,79,61,48,46,42,37,87,55,22,30.18,30.10,10,7,16,0.00
2013-10-9,77,61,50,45,42,37,81,52,25,30.17,30.10,9,4,0,0.00
2013-10-10,81,63,52,54,49,45,93,64,28,30.14,29.99,8,4,0,0.00
2013-10-11,81,66,57,59,53,45,93,66,28,30.01,29.87,14,7,21,0.00
2013-10-12,75,64,54,61,44,-100,88,53,19,30.24,29.91,15,7,21,0.00
2013-10-13,72,55,45,37,31,21,70,43,14,30.42,30.24,6,2,0,0.00
2013-10-14,72,57,46,48,35,30,67,45,24,30.37,30.03,10,6,17,0.01
2013-10-15,68,61,50,63,51,37,93,70,42,30.03,29.88,17,9,21,0.24
2013-10-16,55,51,45,41,37,36,75,60,50,30.05,29.98,14,8,18,0.00
2013-10-17,66,54,46,48,41,34,93,65,29,30.01,29.88,17,6,24,0.04
2013-10-18,55,48,41,41,36,28,93,68,37,30.07,29.92,14,8,25,0.03
2013-10-19,59,45,37,39,32,-100,93,67,28,30.03,29.89,15,9,27,0.00
2013-10-20,73,55,41,39,35,28,86,53,19,29.92,29.78,17,10,28,0.00
2013-10-21,61,49,43,39,32,25,70,52,32,30.05,29.89,12,6,18,0.00
2013-10-22,59,44,36,43,35,30,86,70,47,30.04,29.80,23,9,33,0.02
2013-10-23,48,40,34,37,32,19,93,75,31,30.13,30.04,10,6,16,0.00
2013-10-24,43,39,32,36,27,18,86,63,35,30.40,30.13,17,8,23,0.00
2013-10-25,50,36,30,27,23,18,80,60,31,30.48,30.16,8,4,0,0.00
2013-10-26,55,45,39,34,23,-100,57,45,22,30.16,30.03,16,8,23,0.00
2013-10-27,54,40,30,28,24,21,80,54,27,30.15,29.99,6,2,0,0.00
2013-10-28,64,46,39,30,23,-100,60,44,22,30.24,30.04,7,4,0,0.00
2013-10-29,59,53,46,54,44,30,93,73,43,30.23,30.05,10,6,16,0.06
2013-10-30,68,63,55,66,60,54,93,90,87,30.06,29.77,13,6,20,0.58
2013-10-31,66,56,46,63,54,43,93,91,81,29.77,29.43,15,9,22,1.06
2013-11-1,59,49,45,45,40,36,93,72,41,29.86,29.58,15,9,20,0.00
2013-11-2,54,46,39,39,32,-100,81,60,37,30.18,29.85,16,8,23,0.00
2013-11-3,55,46,36,34,30,28,93,57,40,30.25,30.09,13,6,22,0.00
2013-11-4,61,55,48,43,38,32,58,52,44,30.17,30.05,16,10,22,0.00
2013-11-5,59,56,54,55,52,43,93,85,58,30.21,29.92,17,9,24,0.29
2013-11-6,59,47,36,57,42,30,93,83,70,30.29,29.86,18,10,29,0.41
2013-11-7,55,40,30,36,29,25,92,67,32,30.35,30.28,13,6,20,0.00
2013-11-8,57,43,28,32,27,23,92,56,26,30.34,29.98,17,8,22,0.00
2013-11-9,61,51,48,37,31,-100,61,49,35,30.28,29.98,17,11,23,0.00
2013-11-10,55,43,36,32,27,23,74,53,28,30.44,30.25,9,5,0,0.00
2013-11-11,55,43,30,43,30,19,86,61,42,30.58,30.16,16,10,29,0.00
2013-11-12,32,25,19,19,12,7,73,58,34,30.81,30.58,10,5,18,0.00
2013-11-13,45,29,19,16,11,7,79,50,20,30.69,30.23,15,8,20,0.00
2013-11-14,50,39,34,19,16,12,51,39,25,30.23,30.00,17,12,24,0.00
2013-11-15,59,49,41,41,29,19,76,47,33,30.02,29.86,17,8,22,0.00
2013-11-16,66,58,50,57,49,-100,87,72,63,29.86,29.54,24,14,33,0.05
2013-11-17,75,60,45,61,50,34,88,71,43,29.98,29.33,31,14,55,0.06
2013-11-18,48,43,37,37,31,25,80,64,39,30.30,29.98,18,7,24,0.00
2013-11-19,52,40,34,27,24,21,74,54,29,30.34,30.18,10,6,16,0.00
2013-11-20,46,40,39,37,29,23,93,65,48,30.18,29.98,13,9,20,0.43
2013-11-21,52,48,41,46,41,36,93,77,57,30.28,30.04,14,5,16,0.36
2013-11-22,39,34,27,37,29,21,93,81,64,30.57,30.28,16,10,22,0.02
2013-11-23,28,23,14,21,10,-100,85,61,39,30.75,30.56,15,9,24,0.00
2013-11-24,30,19,10,10,7,3,85,61,31,30.75,30.38,8,4,0,0.00
2013-11-25,37,33,27,19,13,9,63,43,32,30.38,30.15,13,8,16,0.00
2013-11-26,37,29,21,25,16,7,79,59,40,30.29,30.10,18,10,27,0.00
2013-11-27,30,21,14,10,7,3,72,55,31,30.39,30.18,13,7,16,0.00
2013-11-28,43,31,23,18,14,10,63,50,33,30.52,30.16,16,8,21,0.00
2013-11-29,45,33,21,23,18,14,79,55,30,30.57,30.33,9,4,0,0.00
2013-11-30,57,43,34,32,27,-100,75,56,35,30.33,30.08,14,7,18,0.00
2013-12-1,54,41,32,36,30,28,100,68,37,30.13,29.92,6,2,0,0.00
2013-12-2,55,44,37,39,33,28,86,65,43,29.93,29.65,9,4,0,0.00
2013-12-3,59,49,39,50,44,37,93,83,67,29.66,29.58,13,7,16,0.00
2013-12-4,63,51,30,52,44,21,93,79,55,29.90,29.49,18,9,25,0.00
2013-12-5,30,24,21,21,10,5,68,54,45,30.32,29.90,21,12,24,0.00
2013-12-6,21,17,12,7,2,-4,61,49,34,30.62,30.32,14,9,18,0.00
2013-12-7,25,14,7,3,-2,-100,78,54,27,30.73,30.46,9,5,0,0.00
2013-12-8,27,23,18,23,15,1,92,71,44,30.46,30.00,13,6,0,0.00
2013-12-9,25,18,12,21,9,3,85,66,53,30.33,30.07,15,9,18,0.00
2013-12-10,34,22,9,12,5,-2,72,49,29,30.29,30.15,18,9,24,0.00
2013-12-11,27,20,7,18,7,-6,68,56,34,30.63,30.25,16,8,24,0.00
2013-12-12,41,27,5,14,7,-4,71,45,25,30.61,30.21,14,8,20,0.00
2013-12-13,37,31,25,32,24,16,93,75,40,30.21,29.94,10,6,0,0.34
2013-12-14,34,29,21,32,25,-100,100,90,79,30.16,29.87,10,5,0,0.00
2013-12-15,30,24,16,25,19,12,92,82,63,30.17,30.02,6,3,0,0.00
2013-12-16,27,25,19,25,22,18,92,90,85,30.14,30.00,9,4,0,0.00
2013-12-17,41,30,23,28,22,12,92,72,43,30.26,30.13,14,8,18,0.10
2013-12-18,48,36,21,32,22,12,68,55,41,30.25,29.85,20,11,28,0.10
2013-12-19,57,50,43,45,39,32,71,66,54,29.87,29.72,14,9,18,0.00
2013-12-20,54,40,32,50,37,28,100,90,71,29.88,29.70,14,8,18,0.10
2013-12-21,32,30,30,30,26,-100,92,90,86,29.88,29.61,8,5,0,0.00
2013-12-22,32,29,19,32,26,12,100,88,73,30.30,29.65,13,8,22,0.00
2013-12-23,21,13,5,14,5,-6,79,69,60,30.58,30.30,14,8,16,0.00
2013-12-24,23,12,0,14,2,-9,77,64,55,30.58,30.29,12,6,17,0.00
2013-12-25,34,29,23,30,25,14,92,84,67,30.30,30.20,15,8,20,0.00
2013-12-26,46,34,21,32,26,19,92,74,52,30.31,30.18,18,9,23,0.26
2013-12-27,54,40,30,32,30,27,92,67,37,30.33,30.17,12,8,0,0.00
2013-12-28,55,42,34,30,26,-100,80,57,35,30.19,29.88,17,10,22,0.00
2013-12-29,41,25,10,30,14,-6,86,63,43,30.30,29.86,22,13,29,0.00
2013-12-30,28,16,5,10,-2,-9,65,45,29,30.34,30.15,9,5,0,0.00
2013-12-31,43,28,18,23,16,10,79,61,38,30.36,30.10,12,6,0,0.00
2014-1-1,27,22,18,19,15,12,85,76,67,30.17,30.09,10,6,17,0.00
2014-1-2,19,13,1,12,3,-6,85,66,52,30.47,30.17,16,9,20,0.00